W Hartford, Connecticut
Current Conditions -  °F | °C
As of 3:53 PM on Saturday 22 Nov 2014 (Local Time) from KHFD Reporting Station
Overcast Overcast  
Wind Chill: 33°   Ceiling: 8500
Heat Index: 40°   Visibility: 10mi
Dew Point: 13°   Wind: 13mph
Humidity: 33%   Direction: 190°S
Pressure: 30.22"   Gusts: NA
Location:  41.7326°N, 72.7337°W
Report Text: KHFD 222053Z AUTO 19011KT 10SM BKN085 OVC100 04/M11 A3022 RMK AO2 SLP233 T00441106 56021
Loading
Personal Weather Stations






























Interactive Weather Map New forecast layout! Learn more

10-Day Weather Forecast

Advertisements
Track Severe Weather on mobile